createdAt,value
2023-08-12T00:00:12.471Z,96686.09
2023-08-12T00:01:45.770Z,96684.56
2023-08-12T00:03:17.579Z,96689.66
2023-08-12T00:04:49.266Z,96683.50
2023-08-12T00:06:20.963Z,96677.69
2023-08-12T00:07:52.615Z,96675.00
2023-08-12T00:09:24.402Z,96674.19
2023-08-12T00:10:56.036Z,96672.63
2023-08-12T00:12:27.922Z,96674.16
2023-08-12T00:13:59.643Z,96671.44
2023-08-12T00:15:31.469Z,96671.09
2023-08-12T00:17:04.792Z,96666.84
2023-08-12T00:18:38.179Z,96677.31
2023-08-12T00:20:12.143Z,96670.38
2023-08-12T00:21:44.614Z,96662.66
2023-08-12T00:23:16.481Z,96667.25
2023-08-12T00:24:48.254Z,96664.94
2023-08-12T00:26:20.040Z,96668.44
2023-08-12T00:27:51.726Z,96657.22
2023-08-12T00:29:23.390Z,96666.13
2023-08-12T00:30:55.322Z,96661.50
2023-08-12T00:32:28.574Z,96660.72
2023-08-12T00:34:00.388Z,96663.41
2023-08-12T00:35:32.166Z,96655.31
2023-08-12T00:37:04.367Z,96652.59
2023-08-12T00:38:36.346Z,96655.72
2023-08-12T00:40:09.269Z,96653.78
2023-08-12T00:41:40.917Z,96649.94
2023-08-12T00:43:12.708Z,96649.56
2023-08-12T00:44:44.483Z,96649.19
2023-08-12T00:46:16.281Z,96644.53
2023-08-12T00:47:49.370Z,96652.63
2023-08-12T00:49:21.357Z,96655.72
2023-08-12T00:50:53.461Z,96648.41
2023-08-12T00:52:25.291Z,96653.41
2023-08-12T00:53:57.302Z,96644.91
2023-08-12T00:55:29.143Z,96644.16
2023-08-12T00:57:00.927Z,96648.41
2023-08-12T00:58:32.566Z,96653.84
2023-08-12T01:00:05.233Z,96646.88
2023-08-12T01:01:37.104Z,96651.88
2023-08-12T01:03:10.607Z,96645.31
2023-08-12T01:04:42.660Z,96648.81
2023-08-12T01:06:14.407Z,96649.22
2023-08-12T01:07:47.498Z,96648.06
2023-08-12T01:09:19.573Z,96649.59
2023-08-12T01:10:54.198Z,96648.81
2023-08-12T01:12:28.166Z,96637.63
2023-08-12T01:14:01.694Z,96644.97
2023-08-12T01:15:33.504Z,96637.22
2023-08-12T01:17:07.156Z,96639.16
2023-08-12T01:18:41.000Z,96648.81
2023-08-12T01:20:16.740Z,96644.53
2023-08-12T01:21:48.502Z,96641.88
2023-08-12T01:23:21.717Z,96643.41
2023-08-12T01:24:53.637Z,96643.81
2023-08-12T01:26:25.589Z,96636.84
2023-08-12T01:27:58.103Z,96635.31
2023-08-12T01:29:29.749Z,96644.94
2023-08-12T01:31:06.096Z,96639.56
2023-08-12T01:32:40.066Z,96636.09
2023-08-12T01:34:13.671Z,96628.75
2023-08-12T01:35:46.839Z,96636.06
2023-08-12T01:37:20.974Z,96629.13
2023-08-12T01:38:54.245Z,96627.19
2023-08-12T01:40:25.986Z,96622.56
2023-08-12T01:41:57.675Z,96625.28
2023-08-12T01:43:29.432Z,96619.13
2023-08-12T01:45:02.655Z,96617.97
2023-08-12T01:46:34.521Z,96615.63
2023-08-12T01:48:07.381Z,96620.25
2023-08-12T01:49:39.355Z,96614.84
2023-08-12T01:51:11.010Z,96619.50
2023-08-12T01:52:42.672Z,96617.94
2023-08-12T01:54:15.863Z,96621.44
2023-08-12T01:55:48.657Z,96619.88
2023-08-12T01:57:20.362Z,96621.06
2023-08-12T01:58:52.183Z,96614.88
2023-08-12T02:00:23.834Z,96625.66
2023-08-12T02:01:55.965Z,96627.59
2023-08-12T02:03:27.973Z,96627.59
2023-08-12T02:04:59.984Z,96622.56
2023-08-12T02:06:31.719Z,96619.47
2023-08-12T02:08:04.017Z,96625.28
2023-08-12T02:09:36.966Z,96623.72
2023-08-12T02:11:08.757Z,96619.09
2023-08-12T02:12:40.460Z,96621.41
2023-08-12T02:14:12.561Z,96623.34
2023-08-12T02:15:44.691Z,96624.13
2023-08-12T02:17:16.743Z,96612.94
2023-08-12T02:18:49.142Z,96620.66
2023-08-12T02:20:21.030Z,96612.56
2023-08-12T02:21:52.836Z,96620.66
2023-08-12T02:23:25.048Z,96617.19
2023-08-12T02:24:58.485Z,96618.72
2023-08-12T02:26:30.171Z,96624.50
2023-08-12T02:28:02.066Z,96621.41
2023-08-12T02:29:34.560Z,96611.41
2023-08-12T02:31:06.565Z,96611.41
2023-08-12T02:32:38.279Z,96607.94
2023-08-12T02:34:10.819Z,96614.84
2023-08-12T02:35:44.191Z,96611.78
2023-08-12T02:37:16.012Z,96615.63
2023-08-12T02:38:47.720Z,96613.72
2023-08-12T02:40:20.870Z,96611.78
2023-08-12T02:41:52.510Z,96616.41
2023-08-12T02:43:24.249Z,96620.25
2023-08-12T02:44:57.483Z,96618.72
2023-08-12T02:46:29.530Z,96621.03
2023-08-12T02:48:01.309Z,96614.84
2023-08-12T02:49:33.190Z,96621.03
2023-08-12T02:51:04.850Z,96605.22
2023-08-12T02:52:36.713Z,96612.53
2023-08-12T02:54:08.634Z,96618.72
2023-08-12T02:55:41.784Z,96612.94
2023-08-12T02:57:14.772Z,96612.56
2023-08-12T02:58:46.738Z,96609.47
2023-08-12T03:00:18.813Z,96603.31
2023-08-12T03:01:50.488Z,96607.16
2023-08-12T03:03:22.844Z,96609.06
2023-08-12T03:04:55.357Z,96604.84
2023-08-12T03:06:27.124Z,96605.97
2023-08-12T03:08:02.450Z,96604.06
2023-08-12T03:09:34.100Z,96605.63
2023-08-12T03:11:07.493Z,96607.53
2023-08-12T03:12:39.088Z,96609.47
2023-08-12T03:14:10.905Z,96605.59
2023-08-12T03:15:44.038Z,96600.19
2023-08-12T03:17:15.793Z,96600.97
2023-08-12T03:18:47.713Z,96607.53
2023-08-12T03:20:19.615Z,96609.47
2023-08-12T03:21:51.439Z,96617.94
2023-08-12T03:23:23.225Z,96614.84
2023-08-12T03:24:55.020Z,96612.16
2023-08-12T03:26:28.132Z,96605.59
2023-08-12T03:27:59.776Z,96612.16
2023-08-12T03:29:31.873Z,96601.38
2023-08-12T03:31:03.665Z,96605.59
2023-08-12T03:32:35.368Z,96600.59
2023-08-12T03:34:07.056Z,96607.16
2023-08-12T03:35:38.715Z,96605.22
2023-08-12T03:37:10.729Z,96608.31
2023-08-12T03:38:43.006Z,96601.75
2023-08-12T03:40:14.692Z,96610.63
2023-08-12T03:41:48.017Z,96614.09
2023-08-12T03:43:19.643Z,96611.41
2023-08-12T03:44:51.472Z,96610.25
2023-08-12T03:46:23.171Z,96614.09
2023-08-12T03:47:55.183Z,96613.34
2023-08-12T03:49:27.030Z,96612.56
2023-08-12T03:50:58.774Z,96614.88
2023-08-12T03:52:30.473Z,96612.56
2023-08-12T03:54:02.135Z,96611.78
2023-08-12T03:55:34.129Z,96611.00
2023-08-12T03:57:07.799Z,96614.84
2023-08-12T03:58:39.448Z,96612.16
2023-08-12T04:00:12.265Z,96610.63
2023-08-12T04:01:44.091Z,96615.66
2023-08-12T04:03:15.984Z,96621.03
2023-08-12T04:04:48.070Z,96611.78
2023-08-12T04:06:19.752Z,96607.16
2023-08-12T04:07:51.459Z,96602.94
2023-08-12T04:09:23.295Z,96608.69
2023-08-12T04:10:55.072Z,96602.13
2023-08-12T04:12:28.164Z,96604.84
2023-08-12T04:13:59.971Z,96596.72
2023-08-12T04:15:31.603Z,96603.66
2023-08-12T04:17:03.367Z,96612.16
2023-08-12T04:18:35.383Z,96611.00
2023-08-12T04:20:08.455Z,96609.47
2023-08-12T04:21:40.133Z,96609.47
2023-08-12T04:23:12.261Z,96606.00
2023-08-12T04:24:43.927Z,96611.41
2023-08-12T04:26:15.700Z,96607.56
2023-08-12T04:27:50.336Z,96606.00
2023-08-12T04:29:22.189Z,96603.69
2023-08-12T04:30:54.133Z,96604.06
2023-08-12T04:32:25.954Z,96603.28
2023-08-12T04:33:58.065Z,96607.94
2023-08-12T04:35:32.354Z,96611.75
2023-08-12T04:37:04.179Z,96609.84
2023-08-12T04:38:36.837Z,96604.84
2023-08-12T04:40:10.657Z,96605.59
2023-08-12T04:41:42.873Z,96606.75
2023-08-12T04:43:18.345Z,96609.84
2023-08-12T04:44:50.187Z,96602.50
2023-08-12T04:46:21.965Z,96606.78
2023-08-12T04:47:53.868Z,96611.75
2023-08-12T04:49:26.978Z,96612.53
2023-08-12T04:51:02.684Z,96610.25
2023-08-12T04:52:34.469Z,96615.63
2023-08-12T04:54:06.234Z,96611.78
2023-08-12T04:55:38.391Z,96607.16
2023-08-12T04:57:10.320Z,96605.59
2023-08-12T04:58:43.723Z,96613.69
2023-08-12T05:00:15.791Z,96608.31
2023-08-12T05:02:02.238Z,96611.03
2023-08-12T05:03:34.811Z,96610.22
2023-08-12T05:05:08.483Z,96608.31
2023-08-12T05:06:40.204Z,96605.22
2023-08-12T05:08:12.274Z,96602.50
2023-08-12T05:09:52.208Z,96599.44
2023-08-12T05:11:24.163Z,96602.16
2023-08-12T05:12:58.285Z,96602.50
2023-08-12T05:14:34.502Z,96604.81
2023-08-12T05:16:06.194Z,96596.34
2023-08-12T05:17:38.176Z,96595.19
2023-08-12T05:19:10.359Z,96594.41
2023-08-12T05:20:46.334Z,96602.91
2023-08-12T05:22:18.886Z,96603.28
2023-08-12T05:23:50.948Z,96605.56
2023-08-12T05:25:22.684Z,96607.13
2023-08-12T05:26:54.391Z,96608.66
2023-08-12T05:28:26.437Z,96610.22
2023-08-12T05:30:24.120Z,96606.72
2023-08-12T05:32:08.361Z,96617.91
2023-08-12T05:33:40.513Z,96621.41
2023-08-12T05:35:12.229Z,96616.34
2023-08-12T05:36:44.114Z,96614.81
2023-08-12T05:38:15.789Z,96623.31
2023-08-12T05:39:47.581Z,96623.28
2023-08-12T05:41:19.623Z,96619.00
2023-08-12T05:42:51.473Z,96616.31
2023-08-12T05:44:23.467Z,96623.28
2023-08-12T05:45:56.868Z,96614.34
2023-08-12T05:47:28.957Z,96614.75
2023-08-12T05:49:00.667Z,96614.34
2023-08-12T05:50:32.383Z,96616.28
2023-08-12T05:52:07.716Z,96617.06
2023-08-12T05:53:39.777Z,96621.72
2023-08-12T05:55:11.463Z,96617.81
2023-08-12T05:56:43.302Z,96620.13
2023-08-12T05:58:15.201Z,96624.75
2023-08-12T05:59:48.487Z,96620.88
2023-08-12T06:01:24.332Z,96613.53
2023-08-12T06:02:56.214Z,96614.25
2023-08-12T06:04:27.893Z,96607.31
2023-08-12T06:05:59.998Z,96618.53
2023-08-12T06:07:32.746Z,96614.28
2023-08-12T06:09:04.597Z,96617.38
2023-08-12T06:10:38.874Z,96617.75
2023-08-12T06:12:12.845Z,96621.97
2023-08-12T06:13:45.176Z,96620.84
2023-08-12T06:15:17.035Z,96618.53
2023-08-12T06:16:50.042Z,96619.34
2023-08-12T06:18:21.923Z,96620.84
2023-08-12T06:19:53.651Z,96613.88
2023-08-12T06:21:25.510Z,96623.16
2023-08-12T06:23:00.162Z,96631.25
2023-08-12T06:24:32.032Z,96627.75
2023-08-12T06:26:03.805Z,96638.56
2023-08-12T06:27:35.890Z,96628.53
2023-08-12T06:29:07.590Z,96634.69
2023-08-12T06:30:39.423Z,96630.06
2023-08-12T06:32:14.556Z,96627.72
2023-08-12T06:33:46.902Z,96629.25
2023-08-12T06:35:19.188Z,96631.19
2023-08-12T06:36:50.882Z,96622.31
2023-08-12T06:38:22.737Z,96628.88
2023-08-12T06:39:54.816Z,96632.75
2023-08-12T06:41:26.627Z,96630.44
2023-08-12T06:42:58.400Z,96638.56
2023-08-12T06:44:30.225Z,96631.59
2023-08-12T06:46:02.156Z,96627.69
2023-08-12T06:47:35.487Z,96618.78
2023-08-12T06:49:08.151Z,96611.44
2023-08-12T06:50:39.915Z,96612.53
2023-08-12T06:52:12.053Z,96609.03
2023-08-12T06:53:44.448Z,96617.06
2023-08-12T06:55:16.466Z,96619.72
2023-08-12T06:56:48.160Z,96622.81
2023-08-12T06:58:19.836Z,96620.78
2023-08-12T06:59:51.669Z,96619.63
2023-08-12T07:01:23.418Z,96614.16
2023-08-12T07:02:56.635Z,96623.47
2023-08-12T07:04:28.274Z,96619.97
2023-08-12T07:05:59.902Z,96621.13
2023-08-12T07:07:31.623Z,96621.44
2023-08-12T07:09:04.321Z,96621.03
2023-08-12T07:10:36.076Z,96630.69
2023-08-12T07:12:08.505Z,96627.56
2023-08-12T07:13:40.389Z,96622.44
2023-08-12T07:15:12.485Z,96618.13
2023-08-12T07:16:44.146Z,96616.13
2023-08-12T07:18:17.539Z,96613.03
2023-08-12T07:19:49.211Z,96619.22
2023-08-12T07:21:21.074Z,96626.53
2023-08-12T07:22:53.146Z,96637.72
2023-08-12T07:24:24.969Z,96629.97
2023-08-12T07:25:56.772Z,96637.25
2023-08-12T07:27:28.570Z,96630.19
2023-08-12T07:29:00.566Z,96625.44
2023-08-12T07:30:32.447Z,96629.63
2023-08-12T07:32:06.391Z,96632.72
2023-08-12T07:33:39.591Z,96626.88
2023-08-12T07:35:11.413Z,96623.41
2023-08-12T07:36:43.545Z,96623.22
2023-08-12T07:38:15.373Z,96631.25
2023-08-12T07:39:47.212Z,96631.97
2023-08-12T07:41:18.900Z,96627.94
2023-08-12T07:42:50.713Z,96632.06
2023-08-12T07:44:22.610Z,96631.22
2023-08-12T07:46:08.350Z,96630.78
2023-08-12T07:47:50.153Z,96629.25
2023-08-12T07:49:23.258Z,96640.19
2023-08-12T07:50:57.957Z,96629.69
2023-08-12T07:52:29.675Z,96643.56
2023-08-12T07:54:02.160Z,96631.03
2023-08-12T07:55:33.887Z,96629.75
2023-08-12T07:57:05.815Z,96630.31
2023-08-12T07:58:37.475Z,96640.09
2023-08-12T08:00:11.150Z,96628.78
2023-08-12T08:01:42.842Z,96626.31
2023-08-12T08:03:14.902Z,96623.19
2023-08-12T08:04:50.448Z,96624.13
2023-08-12T08:06:23.515Z,96623.72
2023-08-12T08:07:55.324Z,96629.72
2023-08-12T08:09:29.109Z,96624.00
2023-08-12T08:11:00.824Z,96620.38
2023-08-12T08:12:32.921Z,96623.75
2023-08-12T08:14:05.425Z,96617.25
2023-08-12T08:15:37.081Z,96609.06
2023-08-12T08:17:08.993Z,96626.00
2023-08-12T08:18:40.773Z,96626.00
2023-08-12T08:20:13.872Z,96635.59
2023-08-12T08:21:46.193Z,96637.84
2023-08-12T08:23:17.922Z,96633.28
2023-08-12T08:24:49.624Z,96641.66
2023-08-12T08:26:21.386Z,96637.91
2023-08-12T08:27:55.043Z,96637.13
2023-08-12T08:29:30.237Z,96642.84
2023-08-12T08:31:02.657Z,96640.41
2023-08-12T08:32:35.930Z,96645.06
2023-08-12T08:34:08.093Z,96644.53
2023-08-12T08:35:41.429Z,96653.13
2023-08-12T08:37:13.233Z,96650.16
2023-08-12T08:38:44.960Z,96650.00
2023-08-12T08:40:17.492Z,96648.41
2023-08-12T08:41:50.438Z,96654.06
2023-08-12T08:43:26.012Z,96656.84
2023-08-12T08:44:59.240Z,96648.63
2023-08-12T08:46:31.014Z,96655.78
2023-08-12T08:48:03.236Z,96653.22
2023-08-12T08:49:35.019Z,96650.94
2023-08-12T08:51:08.010Z,96653.78
2023-08-12T08:52:40.216Z,96650.22
2023-08-12T08:54:11.864Z,96645.78
2023-08-12T08:55:43.566Z,96646.47
2023-08-12T08:57:21.630Z,96647.91
2023-08-12T08:59:06.861Z,96660.56
2023-08-12T09:00:39.445Z,96660.84
2023-08-12T09:02:13.991Z,96658.78
2023-08-12T09:03:46.038Z,96661.03
2023-08-12T09:05:18.302Z,96657.88
2023-08-12T09:06:51.821Z,96651.22
2023-08-12T09:08:23.782Z,96654.28
2023-08-12T09:09:55.613Z,96668.81
2023-08-12T09:11:27.244Z,96674.75
2023-08-12T09:12:59.866Z,96669.44
2023-08-12T09:14:31.609Z,96672.50
2023-08-12T09:16:03.533Z,96676.47
2023-08-12T09:17:35.406Z,96674.31
2023-08-12T09:19:07.097Z,96671.38
2023-08-12T09:20:38.847Z,96677.41
2023-08-12T09:22:12.216Z,96676.41
2023-08-12T09:23:45.850Z,96679.09
2023-08-12T09:25:17.523Z,96678.19
2023-08-12T09:26:52.791Z,96679.97
2023-08-12T09:28:25.770Z,96676.38
2023-08-12T09:29:59.014Z,96678.31
2023-08-12T09:31:31.555Z,96684.13
2023-08-12T09:33:05.431Z,96686.91
2023-08-12T09:34:38.180Z,96681.25
2023-08-12T09:36:09.928Z,96673.38
2023-08-12T09:37:43.448Z,96672.88
2023-08-12T09:39:15.549Z,96670.31
2023-08-12T09:40:47.585Z,96672.34
2023-08-12T09:42:19.552Z,96666.50
2023-08-12T09:43:52.873Z,96663.38
2023-08-12T09:45:25.063Z,96666.97
2023-08-12T09:47:00.005Z,96668.25
2023-08-12T09:48:31.793Z,96662.78
2023-08-12T09:50:03.989Z,96666.19
2023-08-12T09:51:36.246Z,96654.91
2023-08-12T09:53:09.300Z,96665.19
2023-08-12T09:54:42.293Z,96662.31
2023-08-12T09:56:14.067Z,96658.22
2023-08-12T09:57:45.821Z,96659.16
2023-08-12T09:59:19.156Z,96666.00
2023-08-12T10:00:51.329Z,96670.69
2023-08-12T10:02:25.339Z,96663.44
2023-08-12T10:03:57.223Z,96668.34
2023-08-12T10:05:29.735Z,96663.44
2023-08-12T10:07:01.472Z,96659.38
2023-08-12T10:08:34.548Z,96656.97
2023-08-12T10:10:08.351Z,96646.22
2023-08-12T10:11:40.770Z,96651.47
2023-08-12T10:13:12.618Z,96642.03
2023-08-12T10:14:44.344Z,96652.03
2023-08-12T10:16:16.393Z,96652.78
2023-08-12T10:17:48.342Z,96651.69
2023-08-12T10:19:20.014Z,96652.88
2023-08-12T10:20:51.795Z,96649.72
2023-08-12T10:22:23.949Z,96655.75
2023-08-12T10:23:57.764Z,96648.66
2023-08-12T10:25:35.923Z,96653.78
2023-08-12T10:27:07.903Z,96655.66
2023-08-12T10:28:39.860Z,96653.81
2023-08-12T10:30:12.328Z,96660.63
2023-08-12T10:31:45.878Z,96670.03
2023-08-12T10:33:17.930Z,96671.50
2023-08-12T10:34:55.566Z,96671.25
2023-08-12T10:36:27.428Z,96675.13
2023-08-12T10:37:59.210Z,96677.03
2023-08-12T10:39:33.471Z,96680.00
2023-08-12T10:41:25.896Z,96673.22
2023-08-12T10:42:57.612Z,96673.13
2023-08-12T10:44:40.898Z,96667.38
2023-08-12T10:46:22.265Z,96674.44
2023-08-12T10:48:11.119Z,96677.34
2023-08-12T10:49:43.737Z,96674.97
2023-08-12T10:51:15.372Z,96669.50
2023-08-12T10:52:47.208Z,96681.75
2023-08-12T10:54:21.939Z,96680.06
2023-08-12T10:55:57.852Z,96684.13
2023-08-12T10:57:36.231Z,96675.69
2023-08-12T10:59:08.136Z,96679.69
2023-08-12T11:00:39.804Z,96686.75
2023-08-12T11:02:14.710Z,96681.22
2023-08-12T11:03:46.730Z,96681.56
2023-08-12T11:05:22.081Z,96680.69
2023-08-12T11:06:54.652Z,96682.50
2023-08-12T11:08:27.904Z,96674.31
2023-08-12T11:10:00.580Z,96672.34
2023-08-12T11:11:35.112Z,96673.56
2023-08-12T11:13:06.819Z,96679.84
2023-08-12T11:14:49.855Z,96675.25
2023-08-12T11:16:22.598Z,96677.97
2023-08-12T11:17:54.316Z,96677.66
2023-08-12T11:19:26.146Z,96673.13
2023-08-12T11:20:57.972Z,96675.97
2023-08-12T11:22:30.913Z,96675.06
2023-08-12T11:24:03.859Z,96685.88
2023-08-12T11:25:36.689Z,96686.78
2023-08-12T11:27:12.027Z,96676.06
2023-08-12T11:28:44.019Z,96677.94
2023-08-12T11:30:16.745Z,96675.63
2023-08-12T11:31:48.429Z,96672.66
2023-08-12T11:33:21.149Z,96660.22
2023-08-12T11:34:53.013Z,96660.13
2023-08-12T11:36:24.876Z,96654.00
2023-08-12T11:37:57.710Z,96661.72
2023-08-12T11:39:29.828Z,96658.91
2023-08-12T11:41:01.754Z,96657.78
2023-08-12T11:42:34.902Z,96665.47
2023-08-12T11:44:06.905Z,96665.38
2023-08-12T11:45:43.125Z,96664.81
2023-08-12T11:47:14.830Z,96668.81
2023-08-12T11:48:46.614Z,96672.31
2023-08-12T11:50:19.643Z,96682.16
2023-08-12T11:51:51.367Z,96682.38
2023-08-12T11:53:23.027Z,96672.00
2023-08-12T11:54:55.730Z,96669.47
2023-08-12T11:56:27.375Z,96673.88
2023-08-12T11:58:00.447Z,96670.31
2023-08-12T11:59:32.076Z,96659.41
2023-08-12T12:01:03.992Z,96663.50
2023-08-12T12:02:36.525Z,96660.88
2023-08-12T12:04:08.311Z,96663.16
2023-08-12T12:05:40.061Z,96654.13
2023-08-12T12:07:18.839Z,96652.69
2023-08-12T12:08:50.531Z,96645.59
2023-08-12T12:10:23.177Z,96646.69
2023-08-12T12:11:55.064Z,96651.38
2023-08-12T12:13:28.598Z,96654.31
2023-08-12T12:15:00.390Z,96652.53
2023-08-12T12:16:40.936Z,96653.38
2023-08-12T12:18:13.315Z,96662.50
2023-08-12T12:19:45.009Z,96663.00
2023-08-12T12:21:21.312Z,96660.47
2023-08-12T12:22:52.931Z,96660.81
2023-08-12T12:24:24.754Z,96657.75
2023-08-12T12:25:59.160Z,96664.63
2023-08-12T12:27:30.836Z,96661.91
2023-08-12T12:29:04.478Z,96660.72
2023-08-12T12:30:36.168Z,96654.84
2023-08-12T12:32:07.908Z,96655.34
2023-08-12T12:33:39.954Z,96663.25
2023-08-12T12:35:11.690Z,96647.13
2023-08-12T12:36:43.765Z,96654.88
2023-08-12T12:38:15.907Z,96642.66
2023-08-12T12:39:47.741Z,96644.38
2023-08-12T12:41:19.417Z,96639.75
2023-08-12T12:42:51.106Z,96640.06
2023-08-12T12:44:24.101Z,96640.31
2023-08-12T12:45:56.206Z,96639.38
2023-08-12T12:47:27.913Z,96636.09
2023-08-12T12:48:59.578Z,96628.03
2023-08-12T12:50:31.444Z,96631.63
2023-08-12T12:52:03.181Z,96621.47
2023-08-12T12:53:34.862Z,96619.00
2023-08-12T12:55:07.214Z,96618.72
2023-08-12T12:56:39.031Z,96616.94
2023-08-12T12:58:12.642Z,96621.16
2023-08-12T12:59:45.770Z,96629.44
2023-08-12T13:01:17.497Z,96626.28
2023-08-12T13:02:49.350Z,96624.56
2023-08-12T13:04:21.024Z,96611.38
2023-08-12T13:05:52.677Z,96617.25
2023-08-12T13:07:24.376Z,96616.47
2023-08-12T13:08:56.227Z,96622.50
2023-08-12T13:10:27.959Z,96621.31
2023-08-12T13:11:59.806Z,96613.63
2023-08-12T13:13:31.864Z,96616.34
2023-08-12T13:15:05.905Z,96621.44
2023-08-12T13:16:37.729Z,96611.72
2023-08-12T13:18:09.697Z,96613.75
2023-08-12T13:19:41.518Z,96610.97
2023-08-12T13:21:13.184Z,96609.25
2023-08-12T13:22:44.834Z,96604.72
2023-08-12T13:24:16.578Z,96608.72
2023-08-12T13:25:48.218Z,96600.97
2023-08-12T13:27:20.082Z,96608.34
2023-08-12T13:28:51.878Z,96611.13
2023-08-12T13:30:25.079Z,96606.47
2023-08-12T13:31:57.044Z,96609.88
2023-08-12T13:33:29.388Z,96612.84
2023-08-12T13:35:01.117Z,96597.94
2023-08-12T13:36:33.067Z,96599.44
2023-08-12T13:38:05.098Z,96591.47
2023-08-12T13:39:36.822Z,96603.13
2023-08-12T13:41:08.607Z,96596.41
2023-08-12T13:42:40.268Z,96593.09
2023-08-12T13:44:11.968Z,96598.25
2023-08-12T13:45:45.504Z,96590.16
2023-08-12T13:47:17.241Z,96599.72
2023-08-12T13:48:48.991Z,96599.78
2023-08-12T13:50:21.158Z,96598.03
2023-08-12T13:51:52.918Z,96599.06
2023-08-12T13:53:25.194Z,96601.72
2023-08-12T13:54:56.966Z,96600.34
2023-08-12T13:56:30.157Z,96594.75
2023-08-12T13:58:03.143Z,96591.13
2023-08-12T13:59:34.840Z,96591.41
2023-08-12T14:01:08.058Z,96585.66
2023-08-12T14:02:39.934Z,96584.94
2023-08-12T14:04:12.109Z,96584.56
2023-08-12T14:05:43.822Z,96584.50
2023-08-12T14:07:15.673Z,96577.06
2023-08-12T14:08:47.541Z,96582.06
2023-08-12T14:10:19.558Z,96575.84
2023-08-12T14:11:51.543Z,96579.66
2023-08-12T14:13:23.255Z,96571.72
2023-08-12T14:14:54.931Z,96574.03
2023-08-12T14:16:27.974Z,96583.72
2023-08-12T14:17:59.727Z,96577.47
2023-08-12T14:19:31.470Z,96580.75
2023-08-12T14:21:03.332Z,96579.59
2023-08-12T14:22:35.076Z,96579.03
2023-08-12T14:24:07.082Z,96571.13
2023-08-12T14:25:38.756Z,96567.16
2023-08-12T14:27:10.810Z,96568.06
2023-08-12T14:28:42.813Z,96566.81
2023-08-12T14:30:15.224Z,96560.72
2023-08-12T14:31:48.353Z,96564.59
2023-08-12T14:33:20.424Z,96559.91
2023-08-12T14:34:52.058Z,96560.06
2023-08-12T14:36:24.305Z,96557.16
2023-08-12T14:37:56.082Z,96554.78
2023-08-12T14:39:27.862Z,96546.97
2023-08-12T14:40:59.620Z,96544.28
2023-08-12T14:42:34.390Z,96540.84
2023-08-12T14:44:06.861Z,96547.44
2023-08-12T14:45:38.755Z,96544.63
2023-08-12T14:47:12.042Z,96537.22
2023-08-12T14:48:44.054Z,96543.88
2023-08-12T14:50:16.318Z,96542.72
2023-08-12T14:51:48.282Z,96531.75
2023-08-12T14:53:20.188Z,96529.59
2023-08-12T14:54:52.034Z,96527.44
2023-08-12T14:56:23.884Z,96530.66
2023-08-12T14:57:55.654Z,96524.44
2023-08-12T14:59:27.515Z,96527.22
2023-08-12T15:01:01.943Z,96513.00
2023-08-12T15:02:35.310Z,96523.38
2023-08-12T15:04:07.434Z,96512.09
2023-08-12T15:05:39.115Z,96512.69
2023-08-12T15:07:11.357Z,96508.88
2023-08-12T15:08:43.256Z,96511.94
2023-08-12T15:10:14.990Z,96510.84
2023-08-12T15:11:46.880Z,96506.13
2023-08-12T15:13:18.636Z,96499.13
2023-08-12T15:14:50.576Z,96505.53
2023-08-12T15:16:22.298Z,96508.28
2023-08-12T15:17:55.696Z,96494.41
2023-08-12T15:19:27.462Z,96500.94
2023-08-12T15:20:59.625Z,96498.50
2023-08-12T15:22:34.034Z,96500.31
2023-08-12T15:24:06.456Z,96499.41
2023-08-12T15:25:38.316Z,96485.72
2023-08-12T15:27:10.132Z,96484.97
2023-08-12T15:28:41.888Z,96486.31
2023-08-12T15:30:13.906Z,96487.53
2023-08-12T15:31:45.980Z,96484.53
2023-08-12T15:33:19.125Z,96491.22
2023-08-12T15:34:51.049Z,96489.84
2023-08-12T15:36:22.921Z,96487.09
2023-08-12T15:37:55.626Z,96487.78
2023-08-12T15:39:27.308Z,96484.41
2023-08-12T15:40:58.982Z,96488.78
2023-08-12T15:42:30.932Z,96477.38
2023-08-12T15:44:02.647Z,96482.09
2023-08-12T15:45:34.307Z,96479.41
2023-08-12T15:47:06.117Z,96489.91
2023-08-12T15:48:39.509Z,96483.22
2023-08-12T15:50:11.203Z,96487.94
2023-08-12T15:51:42.873Z,96493.41
2023-08-12T15:53:15.251Z,96489.75
2023-08-12T15:54:46.931Z,96499.44
2023-08-12T15:56:18.734Z,96503.53
2023-08-12T15:57:50.749Z,96509.31
2023-08-12T15:59:23.552Z,96511.09
2023-08-12T16:00:55.480Z,96508.06
2023-08-12T16:02:27.212Z,96510.59
2023-08-12T16:04:04.095Z,96515.09
2023-08-12T16:05:35.947Z,96512.31
2023-08-12T16:07:08.545Z,96512.75
2023-08-12T16:08:40.720Z,96521.91
2023-08-12T16:10:12.397Z,96524.66
2023-08-12T16:11:44.277Z,96528.16
2023-08-12T16:13:17.863Z,96537.91
2023-08-12T16:14:51.358Z,96544.78
2023-08-12T16:16:23.143Z,96542.25
2023-08-12T16:17:54.922Z,96539.56
2023-08-12T16:19:30.194Z,96542.78
2023-08-12T16:21:03.016Z,96546.03
2023-08-12T16:22:35.141Z,96541.25
2023-08-12T16:24:07.676Z,96540.75
2023-08-12T16:25:39.508Z,96536.09
2023-08-12T16:27:12.406Z,96534.97
2023-08-12T16:28:44.371Z,96531.34
2023-08-12T16:30:16.185Z,96535.59
2023-08-12T16:31:47.893Z,96538.41
2023-08-12T16:33:19.810Z,96545.53
2023-08-12T16:34:52.793Z,96545.72
2023-08-12T16:36:24.610Z,96556.47
2023-08-12T16:37:56.436Z,96551.56
2023-08-12T16:39:28.307Z,96549.59
2023-08-12T16:41:00.226Z,96553.28
2023-08-12T16:42:33.231Z,96552.84
2023-08-12T16:44:05.275Z,96547.75
2023-08-12T16:45:36.916Z,96560.34
2023-08-12T16:47:08.873Z,96553.78
2023-08-12T16:48:48.034Z,96553.91
2023-08-12T16:50:26.273Z,96563.22
2023-08-12T16:51:58.016Z,96562.25
2023-08-12T16:53:29.746Z,96569.25
2023-08-12T16:55:04.202Z,96554.56
2023-08-12T16:56:36.053Z,96558.63
2023-08-12T16:58:07.864Z,96563.78
2023-08-12T16:59:39.778Z,96568.03
2023-08-12T17:01:14.094Z,96563.47
2023-08-12T17:02:53.937Z,96565.44
2023-08-12T17:04:25.757Z,96571.78
2023-08-12T17:06:01.825Z,96574.50
2023-08-12T17:07:33.878Z,96562.81
2023-08-12T17:09:08.463Z,96571.69
2023-08-12T17:10:42.119Z,96563.41
2023-08-12T17:12:14.048Z,96575.09
2023-08-12T17:13:45.976Z,96563.59
2023-08-12T17:15:17.854Z,96565.78
2023-08-12T17:16:49.630Z,96572.91
2023-08-12T17:18:21.357Z,96564.13
2023-08-12T17:19:53.135Z,96562.81
2023-08-12T17:21:26.217Z,96558.09
2023-08-12T17:22:57.953Z,96562.03
2023-08-12T17:24:29.792Z,96569.81
2023-08-12T17:26:01.706Z,96571.34
2023-08-12T17:27:36.396Z,96576.91
2023-08-12T17:29:08.525Z,96567.50
2023-08-12T17:30:40.278Z,96577.38
2023-08-12T17:32:12.281Z,96570.91
2023-08-12T17:33:44.211Z,96577.38
2023-08-12T17:35:18.749Z,96574.34
2023-08-12T17:36:51.874Z,96566.91
2023-08-12T17:38:23.988Z,96567.97
2023-08-12T17:39:55.813Z,96572.81
2023-08-12T17:41:27.546Z,96564.44
2023-08-12T17:42:59.374Z,96567.84
2023-08-12T17:44:32.000Z,96572.22
2023-08-12T17:46:03.728Z,96573.31
2023-08-12T17:47:35.523Z,96573.84
2023-08-12T17:49:07.391Z,96569.59
2023-08-12T17:50:41.620Z,96572.66
2023-08-12T17:52:27.353Z,96576.81
2023-08-12T17:54:04.212Z,96569.69
2023-08-12T17:55:37.820Z,96571.66
2023-08-12T17:57:13.357Z,96570.13
2023-08-12T17:58:45.852Z,96568.63
2023-08-12T18:00:33.840Z,96569.59
2023-08-12T18:02:08.757Z,96569.50
2023-08-12T18:03:51.164Z,96570.38
2023-08-12T18:05:27.008Z,96572.00
2023-08-12T18:07:00.647Z,96564.34
2023-08-12T18:08:38.313Z,96567.09